createdAt,value
2019-01-03T00:00:01.936Z,1030.44
2019-01-03T00:00:28.044Z,1030.41
2019-01-03T00:00:54.143Z,1030.43
2019-01-03T00:01:20.258Z,1030.39
2019-01-03T00:01:46.382Z,1030.41
2019-01-03T00:02:12.483Z,1030.44
2019-01-03T00:02:38.596Z,1030.37
2019-01-03T00:03:04.696Z,1030.42
2019-01-03T00:03:30.804Z,1030.38
2019-01-03T00:03:56.903Z,1030.41
2019-01-03T00:04:23.014Z,1030.39
2019-01-03T00:04:49.139Z,1030.39
2019-01-03T00:05:15.251Z,1030.33
2019-01-03T00:05:41.486Z,1030.38
2019-01-03T00:06:07.591Z,1030.42
2019-01-03T00:06:33.730Z,1030.37
2019-01-03T00:06:59.832Z,1030.39
2019-01-03T00:07:25.944Z,1030.4
2019-01-03T00:07:52.052Z,1030.42
2019-01-03T00:08:18.151Z,1030.43
2019-01-03T00:08:44.269Z,1030.42
2019-01-03T00:09:10.368Z,1030.45
2019-01-03T00:09:36.478Z,1030.43
2019-01-03T00:10:02.576Z,1030.43
2019-01-03T00:10:28.687Z,1030.43
2019-01-03T00:10:54.817Z,1030.48
2019-01-03T00:11:20.958Z,1030.45
2019-01-03T00:11:47.090Z,1030.51
2019-01-03T00:12:13.227Z,1030.48
2019-01-03T00:12:39.360Z,1030.5
2019-01-03T00:13:05.472Z,1030.52
2019-01-03T00:13:31.575Z,1030.49
2019-01-03T00:13:57.712Z,1030.53
2019-01-03T00:14:23.817Z,1030.55
2019-01-03T00:14:49.921Z,1030.54
2019-01-03T00:15:16.024Z,1030.53
2019-01-03T00:15:42.136Z,1030.5
2019-01-03T00:16:08.277Z,1030.51
2019-01-03T00:16:34.380Z,1030.49
2019-01-03T00:17:00.481Z,1030.48
2019-01-03T00:17:26.606Z,1030.51
2019-01-03T00:17:52.740Z,1030.53
2019-01-03T00:18:18.849Z,1030.5
2019-01-03T00:18:44.953Z,1030.53
2019-01-03T00:19:11.062Z,1030.52
2019-01-03T00:19:37.173Z,1030.48
2019-01-03T00:20:03.271Z,1030.52
2019-01-03T00:20:29.379Z,1030.46
2019-01-03T00:20:55.480Z,1030.5
2019-01-03T00:21:21.583Z,1030.47
2019-01-03T00:21:47.693Z,1030.56
2019-01-03T00:22:13.826Z,1030.53
2019-01-03T00:22:39.952Z,1030.53
2019-01-03T00:23:06.083Z,1030.51
2019-01-03T00:23:32.198Z,1030.51
2019-01-03T00:23:58.302Z,1030.46
2019-01-03T00:24:24.404Z,1030.46
2019-01-03T00:24:50.525Z,1030.48
2019-01-03T00:25:16.634Z,1030.54
2019-01-03T00:25:42.764Z,1030.52
2019-01-03T00:26:08.872Z,1030.52
2019-01-03T00:26:34.982Z,1030.51
2019-01-03T00:27:02.073Z,1030.51
2019-01-03T00:27:28.183Z,1030.51
2019-01-03T00:27:54.312Z,1030.53
2019-01-03T00:28:20.472Z,1030.52
2019-01-03T00:28:47.564Z,1030.53
2019-01-03T00:29:13.672Z,1030.53
2019-01-03T00:29:39.774Z,1030.54
2019-01-03T00:30:05.876Z,1030.5
2019-01-03T00:30:32.017Z,1030.49
2019-01-03T00:30:58.124Z,1030.5
2019-01-03T00:31:24.247Z,1030.52
2019-01-03T00:31:50.356Z,1030.52
2019-01-03T00:32:16.470Z,1030.48
2019-01-03T00:32:42.574Z,1030.48
2019-01-03T00:33:08.681Z,1030.5
2019-01-03T00:33:34.784Z,1030.52
2019-01-03T00:34:00.882Z,1030.48
2019-01-03T00:34:26.985Z,1030.5
2019-01-03T00:34:53.118Z,1030.55
2019-01-03T00:35:19.213Z,1030.53
2019-01-03T00:35:45.317Z,1030.52
2019-01-03T00:36:11.455Z,1030.52
2019-01-03T00:36:37.561Z,1030.56
2019-01-03T00:37:03.670Z,1030.52
2019-01-03T00:37:29.772Z,1030.55
2019-01-03T00:37:55.911Z,1030.56
2019-01-03T00:38:22.010Z,1030.55
2019-01-03T00:38:48.117Z,1030.61
2019-01-03T00:39:14.258Z,1030.59
2019-01-03T00:39:40.361Z,1030.58
2019-01-03T00:40:06.498Z,1030.62
2019-01-03T00:40:32.629Z,1030.63
2019-01-03T00:40:58.733Z,1030.61
2019-01-03T00:41:24.835Z,1030.62
2019-01-03T00:41:50.945Z,1030.62
2019-01-03T00:42:17.048Z,1030.63
2019-01-03T00:42:43.155Z,1030.6
2019-01-03T00:43:09.254Z,1030.64
2019-01-03T00:43:35.395Z,1030.64
2019-01-03T00:44:01.501Z,1030.65
2019-01-03T00:44:27.603Z,1030.67
2019-01-03T00:44:53.711Z,1030.65
2019-01-03T00:45:19.817Z,1030.64
2019-01-03T00:45:45.912Z,1030.67
2019-01-03T00:46:12.025Z,1030.69
2019-01-03T00:46:38.131Z,1030.67
2019-01-03T00:47:04.269Z,1030.72
2019-01-03T00:47:30.379Z,1030.68
2019-01-03T00:47:56.520Z,1030.72
2019-01-03T00:48:22.626Z,1030.74
2019-01-03T00:48:48.729Z,1030.76
2019-01-03T00:49:14.829Z,1030.74
2019-01-03T00:49:40.967Z,1030.77
2019-01-03T00:50:07.098Z,1030.81
2019-01-03T00:50:33.200Z,1030.79
2019-01-03T00:50:59.306Z,1030.83
2019-01-03T00:51:25.415Z,1030.82
2019-01-03T00:51:51.520Z,1030.83
2019-01-03T00:52:17.627Z,1030.84
2019-01-03T00:52:43.727Z,1030.87
2019-01-03T00:53:09.841Z,1030.87
2019-01-03T00:53:35.937Z,1030.87
2019-01-03T00:54:02.047Z,1030.89
2019-01-03T00:54:28.155Z,1030.89
2019-01-03T00:54:54.248Z,1030.85
2019-01-03T00:55:20.353Z,1030.86
2019-01-03T00:55:46.460Z,1030.88
2019-01-03T00:56:12.561Z,1030.85
2019-01-03T00:56:38.668Z,1030.87
2019-01-03T00:57:04.799Z,1030.86
2019-01-03T00:57:30.901Z,1030.89
2019-01-03T00:57:57.011Z,1030.85
2019-01-03T00:58:23.110Z,1030.88
2019-01-03T00:58:49.224Z,1030.92
2019-01-03T00:59:15.320Z,1030.85
2019-01-03T00:59:41.425Z,1030.89
2019-01-03T01:00:07.531Z,1030.9
2019-01-03T01:00:33.692Z,1030.87
2019-01-03T01:00:59.792Z,1030.91
2019-01-03T01:01:25.903Z,1030.89
2019-01-03T01:01:52.004Z,1030.97
2019-01-03T01:02:18.105Z,1030.96
2019-01-03T01:02:44.226Z,1030.98
2019-01-03T01:03:10.319Z,1031.01
2019-01-03T01:03:36.425Z,1030.97
2019-01-03T01:04:02.554Z,1030.98
2019-01-03T01:04:28.662Z,1030.98
2019-01-03T01:04:54.763Z,1031.01
2019-01-03T01:05:20.877Z,1031.07
2019-01-03T01:05:46.981Z,1030.99
2019-01-03T01:06:13.089Z,1030.98
2019-01-03T01:06:39.197Z,1031.02
2019-01-03T01:07:05.334Z,1031.02
2019-01-03T01:07:31.438Z,1031.04
2019-01-03T01:07:57.547Z,1031.07
2019-01-03T01:08:23.679Z,1031.06
2019-01-03T01:08:49.791Z,1031.03
2019-01-03T01:09:15.900Z,1031.06
2019-01-03T01:09:42.029Z,1031.05
2019-01-03T01:10:08.159Z,1031.07
2019-01-03T01:10:34.270Z,1031.07
2019-01-03T01:11:00.951Z,1031.11
2019-01-03T01:11:27.053Z,1031.1
2019-01-03T01:11:53.193Z,1031.1
2019-01-03T01:12:19.320Z,1031.11
2019-01-03T01:12:45.427Z,1031.12
2019-01-03T01:13:11.527Z,1031.12
2019-01-03T01:13:37.634Z,1031.12
2019-01-03T01:14:03.737Z,1031.12
2019-01-03T01:14:29.874Z,1031.16
2019-01-03T01:14:55.983Z,1031.11
2019-01-03T01:15:22.087Z,1031.12
2019-01-03T01:15:48.192Z,1031.12
2019-01-03T01:16:14.306Z,1031.15
2019-01-03T01:16:40.434Z,1031.11
2019-01-03T01:17:06.566Z,1031.12
2019-01-03T01:17:32.677Z,1031.15
2019-01-03T01:17:58.783Z,1031.12
2019-01-03T01:18:24.892Z,1031.14
2019-01-03T01:18:51.009Z,1031.14
2019-01-03T01:19:17.117Z,1031.16
2019-01-03T01:19:43.243Z,1031.12
2019-01-03T01:20:09.355Z,1031.15
2019-01-03T01:20:35.488Z,1031.15
2019-01-03T01:21:01.592Z,1031.17
2019-01-03T01:21:27.698Z,1031.18
2019-01-03T01:21:53.803Z,1031.18
2019-01-03T01:22:19.911Z,1031.18
2019-01-03T01:22:46.008Z,1031.21
2019-01-03T01:23:12.117Z,1031.18
2019-01-03T01:23:38.222Z,1031.19
2019-01-03T01:24:04.334Z,1031.19
2019-01-03T01:24:30.473Z,1031.18
2019-01-03T01:24:56.577Z,1031.17
2019-01-03T01:25:22.682Z,1031.19
2019-01-03T01:25:48.785Z,1031.12
2019-01-03T01:26:14.890Z,1031.13
2019-01-03T01:26:40.991Z,1031.13
2019-01-03T01:27:07.102Z,1031.1
2019-01-03T01:27:33.208Z,1031.15
2019-01-03T01:27:59.307Z,1031.14
2019-01-03T01:28:25.408Z,1031.15
2019-01-03T01:28:51.515Z,1031.13
2019-01-03T01:29:17.618Z,1031.17
2019-01-03T01:29:43.733Z,1031.16
2019-01-03T01:30:09.834Z,1031.13
2019-01-03T01:30:35.940Z,1031.15
2019-01-03T01:31:02.043Z,1031.11
2019-01-03T01:31:28.181Z,1031.14
2019-01-03T01:31:54.286Z,1031.15
2019-01-03T01:32:20.389Z,1031.17
2019-01-03T01:32:46.501Z,1031.15
2019-01-03T01:33:12.606Z,1031.2
2019-01-03T01:33:38.744Z,1031.18
2019-01-03T01:34:04.843Z,1031.22
2019-01-03T01:34:30.956Z,1031.21
2019-01-03T01:34:57.061Z,1031.21
2019-01-03T01:35:23.216Z,1031.22
2019-01-03T01:35:49.315Z,1031.2
2019-01-03T01:36:15.424Z,1031.25
2019-01-03T01:36:41.531Z,1031.25
2019-01-03T01:37:07.638Z,1031.25
2019-01-03T01:37:33.740Z,1031.25
2019-01-03T01:37:59.845Z,1031.22
2019-01-03T01:38:25.953Z,1031.27
2019-01-03T01:38:52.061Z,1031.28
2019-01-03T01:39:18.162Z,1031.26
2019-01-03T01:39:44.270Z,1031.24
2019-01-03T01:40:10.376Z,1031.25
2019-01-03T01:40:36.482Z,1031.22
2019-01-03T01:41:02.590Z,1031.2
2019-01-03T01:41:28.692Z,1031.19
2019-01-03T01:41:54.802Z,1031.17
2019-01-03T01:42:20.911Z,1031.18
2019-01-03T01:42:47.013Z,1031.18
2019-01-03T01:43:13.118Z,1031.12
2019-01-03T01:43:39.217Z,1031.17
2019-01-03T01:44:05.328Z,1031.16
2019-01-03T01:44:31.779Z,1031.17
2019-01-03T01:44:57.850Z,1031.14
2019-01-03T01:45:23.949Z,1031.14
2019-01-03T01:45:50.057Z,1031.18
2019-01-03T01:46:16.364Z,1031.13
2019-01-03T01:46:42.491Z,1031.13
2019-01-03T01:47:08.600Z,1031.16
2019-01-03T01:47:34.707Z,1031.11
2019-01-03T01:48:00.807Z,1031.18
2019-01-03T01:48:26.918Z,1031.14
2019-01-03T01:48:53.026Z,1031.15
2019-01-03T01:49:19.147Z,1031.14
2019-01-03T01:49:45.283Z,1031.16
2019-01-03T01:50:11.391Z,1031.12
2019-01-03T01:50:37.500Z,1031.16
2019-01-03T01:51:03.603Z,1031.13
2019-01-03T01:51:29.704Z,1031.12
2019-01-03T01:51:55.828Z,1031.16
2019-01-03T01:52:21.937Z,1031.13
2019-01-03T01:52:48.043Z,1031.12
2019-01-03T01:53:14.148Z,1031.09
2019-01-03T01:53:40.285Z,1031.08
2019-01-03T01:54:06.382Z,1031.11
2019-01-03T01:54:32.488Z,1031.1
2019-01-03T01:54:58.592Z,1031.09
2019-01-03T01:55:24.703Z,1031.05
2019-01-03T01:55:50.807Z,1031.04
2019-01-03T01:56:17.118Z,1031.09
2019-01-03T01:56:43.298Z,1031.08
2019-01-03T01:57:09.419Z,1031.07
2019-01-03T01:57:35.518Z,1031.12
2019-01-03T01:58:01.621Z,1031.06
2019-01-03T01:58:27.730Z,1031.09
2019-01-03T01:58:53.831Z,1031.11
2019-01-03T01:59:19.942Z,1031.12
2019-01-03T01:59:46.044Z,1031.13
2019-01-03T02:00:12.151Z,1031.13
2019-01-03T02:00:38.249Z,1031.13
2019-01-03T02:01:04.358Z,1031.19
2019-01-03T02:01:30.515Z,1031.17
2019-01-03T02:01:56.685Z,1031.2
2019-01-03T02:02:22.795Z,1031.23
2019-01-03T02:02:48.903Z,1031.22
2019-01-03T02:03:15.034Z,1031.27
2019-01-03T02:03:41.143Z,1031.24
2019-01-03T02:04:07.241Z,1031.24
2019-01-03T02:04:33.349Z,1031.22
2019-01-03T02:04:59.452Z,1031.21
2019-01-03T02:05:25.561Z,1031.24
2019-01-03T02:05:51.665Z,1031.22
2019-01-03T02:06:17.772Z,1031.24
2019-01-03T02:06:43.906Z,1031.25
2019-01-03T02:07:10.011Z,1031.23
2019-01-03T02:07:36.122Z,1031.27
2019-01-03T02:08:02.228Z,1031.23
2019-01-03T02:08:28.335Z,1031.25
2019-01-03T02:08:54.440Z,1031.23
2019-01-03T02:09:20.548Z,1031.21
2019-01-03T02:09:46.651Z,1031.2
2019-01-03T02:10:12.754Z,1031.2
2019-01-03T02:10:38.858Z,1031.22
2019-01-03T02:11:04.962Z,1031.2
2019-01-03T02:11:31.100Z,1031.17
2019-01-03T02:11:57.221Z,1031.19
2019-01-03T02:12:23.333Z,1031.19
2019-01-03T02:12:49.489Z,1031.19
2019-01-03T02:13:15.597Z,1031.2
2019-01-03T02:13:41.690Z,1031.19
2019-01-03T02:14:07.802Z,1031.18
2019-01-03T02:14:33.905Z,1031.18
2019-01-03T02:15:00.008Z,1031.19
2019-01-03T02:15:26.110Z,1031.16
2019-01-03T02:15:52.219Z,1031.12
2019-01-03T02:16:18.322Z,1031.12
2019-01-03T02:16:44.429Z,1031.1
2019-01-03T02:17:10.533Z,1031.09
2019-01-03T02:17:36.662Z,1031.09
2019-01-03T02:18:02.773Z,1031.15
2019-01-03T02:18:28.905Z,1031.13
2019-01-03T02:18:55.008Z,1031.1
2019-01-03T02:19:21.113Z,1031.11
2019-01-03T02:19:47.243Z,1031.08
2019-01-03T02:20:13.385Z,1031.08
2019-01-03T02:20:39.483Z,1031.06
2019-01-03T02:21:05.588Z,1031.05
2019-01-03T02:21:31.693Z,1031.04
2019-01-03T02:21:57.799Z,1031.01
2019-01-03T02:22:23.910Z,1031.09
2019-01-03T02:22:50.015Z,1031.05
2019-01-03T02:23:16.125Z,1031.04
2019-01-03T02:23:42.231Z,1031.06
2019-01-03T02:24:08.335Z,1031.05
2019-01-03T02:24:34.439Z,1031.06
2019-01-03T02:25:00.537Z,1031.06
2019-01-03T02:25:26.644Z,1031.05
2019-01-03T02:25:52.756Z,1031.03
2019-01-03T02:26:18.887Z,1031.06
2019-01-03T02:26:45.020Z,1031.02
2019-01-03T02:27:11.119Z,1031.01
2019-01-03T02:27:37.224Z,1031.02
2019-01-03T02:28:03.329Z,1031
2019-01-03T02:28:29.438Z,1031.01
2019-01-03T02:28:55.546Z,1030.95
2019-01-03T02:29:21.639Z,1031.03
2019-01-03T02:29:47.772Z,1031.01
2019-01-03T02:30:13.919Z,1030.97
2019-01-03T02:30:40.052Z,1030.95
2019-01-03T02:31:06.218Z,1030.98
2019-01-03T02:31:32.316Z,1030.97
2019-01-03T02:31:58.460Z,1030.91
2019-01-03T02:32:24.599Z,1030.94
2019-01-03T02:32:50.721Z,1030.92
2019-01-03T02:33:16.830Z,1030.94
2019-01-03T02:33:42.931Z,1030.95
2019-01-03T02:34:09.041Z,1030.94
2019-01-03T02:34:35.137Z,1030.91
2019-01-03T02:35:01.249Z,1030.91
2019-01-03T02:35:27.379Z,1030.93
2019-01-03T02:35:53.485Z,1030.94
2019-01-03T02:36:19.668Z,1030.94
2019-01-03T02:36:45.773Z,1030.93
2019-01-03T02:37:11.900Z,1030.94
2019-01-03T02:37:38.033Z,1030.93
2019-01-03T02:38:04.157Z,1030.9
2019-01-03T02:38:30.277Z,1030.9
2019-01-03T02:38:56.411Z,1030.92
2019-01-03T02:39:22.522Z,1030.95
2019-01-03T02:39:48.627Z,1030.92
2019-01-03T02:40:14.731Z,1030.87
2019-01-03T02:40:40.844Z,1030.87
2019-01-03T02:41:07.005Z,1030.88
2019-01-03T02:41:33.110Z,1030.91
2019-01-03T02:41:59.216Z,1030.86
2019-01-03T02:42:25.320Z,1030.89
2019-01-03T02:42:51.419Z,1030.91
2019-01-03T02:43:17.525Z,1030.9
2019-01-03T02:43:43.663Z,1030.92
2019-01-03T02:44:09.766Z,1030.91
2019-01-03T02:44:35.880Z,1030.91
2019-01-03T02:45:02.024Z,1030.92
2019-01-03T02:45:28.124Z,1030.92
2019-01-03T02:45:54.223Z,1030.91
2019-01-03T02:46:20.331Z,1030.9
2019-01-03T02:46:46.434Z,1030.92
2019-01-03T02:47:12.567Z,1030.89
2019-01-03T02:47:38.673Z,1030.88
2019-01-03T02:48:04.804Z,1030.88
2019-01-03T02:48:30.945Z,1030.9
2019-01-03T02:48:57.081Z,1030.85
2019-01-03T02:49:23.208Z,1030.85
2019-01-03T02:49:49.314Z,1030.83
2019-01-03T02:50:15.422Z,1030.81
2019-01-03T02:50:41.523Z,1030.81
2019-01-03T02:51:07.633Z,1030.83
2019-01-03T02:51:33.729Z,1030.82
2019-01-03T02:51:59.837Z,1030.82
2019-01-03T02:52:25.968Z,1030.78
2019-01-03T02:52:52.077Z,1030.81
2019-01-03T02:53:18.201Z,1030.84
2019-01-03T02:53:44.305Z,1030.82
2019-01-03T02:54:10.412Z,1030.78
2019-01-03T02:54:36.511Z,1030.78
2019-01-03T02:55:02.652Z,1030.75
2019-01-03T02:55:28.752Z,1030.8
2019-01-03T02:55:54.862Z,1030.83
2019-01-03T02:56:20.968Z,1030.76
2019-01-03T02:56:47.077Z,1030.79
2019-01-03T02:57:13.216Z,1030.82
2019-01-03T02:57:39.323Z,1030.83
2019-01-03T02:58:05.435Z,1030.81
2019-01-03T02:58:31.597Z,1030.86
2019-01-03T02:58:57.701Z,1030.83
2019-01-03T02:59:23.803Z,1030.85
2019-01-03T02:59:49.904Z,1030.87
2019-01-03T03:00:16.010Z,1030.88
2019-01-03T03:00:42.115Z,1030.88
2019-01-03T03:01:08.222Z,1030.93
2019-01-03T03:01:34.324Z,1030.9
2019-01-03T03:02:00.460Z,1030.92
2019-01-03T03:02:26.573Z,1030.93
2019-01-03T03:02:52.726Z,1030.96
2019-01-03T03:03:18.836Z,1030.93
2019-01-03T03:03:44.940Z,1030.93
2019-01-03T03:04:11.043Z,1030.96
2019-01-03T03:04:37.173Z,1030.93
2019-01-03T03:05:03.276Z,1031.03
2019-01-03T03:05:29.379Z,1030.99
2019-01-03T03:05:55.484Z,1030.96
2019-01-03T03:06:21.617Z,1031
2019-01-03T03:06:47.726Z,1031.03
2019-01-03T03:07:13.865Z,1031.04
2019-01-03T03:07:39.972Z,1031.05
2019-01-03T03:08:06.107Z,1031
2019-01-03T03:08:32.206Z,1031.01
2019-01-03T03:08:58.364Z,1030.99
2019-01-03T03:09:24.475Z,1030.97
2019-01-03T03:09:50.573Z,1031.01
2019-01-03T03:10:16.675Z,1030.99
2019-01-03T03:10:42.781Z,1030.96
2019-01-03T03:11:08.887Z,1031
2019-01-03T03:11:35.013Z,1030.97
2019-01-03T03:12:01.147Z,1030.96
2019-01-03T03:12:27.252Z,1030.99
2019-01-03T03:12:53.346Z,1030.99
2019-01-03T03:13:19.481Z,1030.99
2019-01-03T03:13:45.584Z,1030.99
2019-01-03T03:14:11.687Z,1030.98
2019-01-03T03:14:37.793Z,1030.96
2019-01-03T03:15:03.901Z,1030.99
2019-01-03T03:15:30.012Z,1031.03
2019-01-03T03:15:56.108Z,1030.96
2019-01-03T03:16:22.217Z,1030.98
2019-01-03T03:16:48.327Z,1030.92
2019-01-03T03:17:14.454Z,1030.93
2019-01-03T03:17:40.557Z,1030.98
2019-01-03T03:18:06.657Z,1030.89
2019-01-03T03:18:32.770Z,1030.88
2019-01-03T03:18:58.867Z,1030.91
2019-01-03T03:19:25.033Z,1030.89
2019-01-03T03:19:51.171Z,1030.87
2019-01-03T03:20:17.280Z,1030.92
2019-01-03T03:20:43.380Z,1030.85
2019-01-03T03:21:09.518Z,1030.88
2019-01-03T03:21:35.667Z,1030.88
2019-01-03T03:22:01.768Z,1030.92
2019-01-03T03:22:27.882Z,1030.91
2019-01-03T03:22:54.020Z,1030.95
2019-01-03T03:23:20.158Z,1030.89
2019-01-03T03:23:46.261Z,1030.87
2019-01-03T03:24:12.366Z,1030.85
2019-01-03T03:24:38.474Z,1030.87
2019-01-03T03:25:04.642Z,1030.88
2019-01-03T03:25:30.771Z,1030.9
2019-01-03T03:25:56.904Z,1030.88
2019-01-03T03:26:23.040Z,1030.94
2019-01-03T03:26:49.147Z,1030.9
2019-01-03T03:27:15.279Z,1030.95
2019-01-03T03:27:41.389Z,1030.93
2019-01-03T03:28:07.550Z,1030.96
2019-01-03T03:28:33.661Z,1030.96
2019-01-03T03:28:59.766Z,1030.94
2019-01-03T03:29:26.737Z,1030.94
2019-01-03T03:29:52.870Z,1030.96
2019-01-03T03:30:19.014Z,1030.93
2019-01-03T03:30:45.167Z,1030.94
2019-01-03T03:31:11.366Z,1030.96
2019-01-03T03:31:37.459Z,1031
2019-01-03T03:32:03.628Z,1030.93
2019-01-03T03:32:29.823Z,1030.92
2019-01-03T03:32:55.961Z,1030.89
2019-01-03T03:33:22.123Z,1030.93
2019-01-03T03:33:48.258Z,1030.91
2019-01-03T03:34:14.358Z,1030.87
2019-01-03T03:34:40.470Z,1030.95
2019-01-03T03:35:06.572Z,1030.95
2019-01-03T03:35:32.674Z,1030.98
2019-01-03T03:35:58.810Z,1030.96
2019-01-03T03:36:24.917Z,1030.95
2019-01-03T03:36:51.022Z,1030.92
2019-01-03T03:37:17.124Z,1030.91
2019-01-03T03:37:43.229Z,1030.9
2019-01-03T03:38:09.349Z,1030.91
2019-01-03T03:38:35.458Z,1030.92
2019-01-03T03:39:01.556Z,1030.89
2019-01-03T03:39:27.661Z,1030.91
2019-01-03T03:39:53.771Z,1030.89
2019-01-03T03:40:19.868Z,1030.84
2019-01-03T03:40:45.972Z,1030.88
2019-01-03T03:41:12.078Z,1030.87
2019-01-03T03:41:38.201Z,1030.87
2019-01-03T03:42:04.309Z,1030.89
2019-01-03T03:42:30.444Z,1030.85
2019-01-03T03:42:56.578Z,1030.84
2019-01-03T03:43:22.679Z,1030.84
2019-01-03T03:43:48.789Z,1030.76
2019-01-03T03:44:14.924Z,1030.72
2019-01-03T03:44:41.066Z,1030.74
2019-01-03T03:45:07.203Z,1030.76
2019-01-03T03:45:33.307Z,1030.71
2019-01-03T03:45:59.411Z,1030.72
2019-01-03T03:46:25.519Z,1030.74
2019-01-03T03:46:51.623Z,1030.74
2019-01-03T03:47:17.733Z,1030.71
2019-01-03T03:47:43.833Z,1030.73
2019-01-03T03:48:09.938Z,1030.71
2019-01-03T03:48:36.075Z,1030.73
2019-01-03T03:49:02.212Z,1030.71
2019-01-03T03:49:28.345Z,1030.69
2019-01-03T03:49:54.478Z,1030.7
2019-01-03T03:50:20.581Z,1030.68
2019-01-03T03:50:46.764Z,1030.72
2019-01-03T03:51:12.874Z,1030.71
2019-01-03T03:51:39.030Z,1030.67
2019-01-03T03:52:05.134Z,1030.73
2019-01-03T03:52:31.268Z,1030.72
2019-01-03T03:52:57.379Z,1030.7
2019-01-03T03:53:23.485Z,1030.68
2019-01-03T03:53:49.589Z,1030.7
2019-01-03T03:54:15.718Z,1030.69
2019-01-03T03:54:41.829Z,1030.7
2019-01-03T03:55:07.940Z,1030.71
2019-01-03T03:55:34.035Z,1030.7
2019-01-03T03:56:00.168Z,1030.65
2019-01-03T03:56:26.273Z,1030.71
2019-01-03T03:56:52.380Z,1030.68
2019-01-03T03:57:18.521Z,1030.68
2019-01-03T03:57:44.654Z,1030.67
2019-01-03T03:58:10.757Z,1030.66
2019-01-03T03:58:36.858Z,1030.65
2019-01-03T03:59:02.989Z,1030.66
2019-01-03T03:59:29.095Z,1030.71
2019-01-03T03:59:55.210Z,1030.72
2019-01-03T04:00:21.306Z,1030.69
2019-01-03T04:00:47.473Z,1030.71
2019-01-03T04:01:13.588Z,1030.68
2019-01-03T04:01:39.685Z,1030.67
2019-01-03T04:02:05.824Z,1030.72
2019-01-03T04:02:31.929Z,1030.69
2019-01-03T04:02:58.086Z,1030.7
2019-01-03T04:03:24.199Z,1030.71
2019-01-03T04:03:50.308Z,1030.68
2019-01-03T04:04:16.406Z,1030.72
2019-01-03T04:04:42.513Z,1030.72
2019-01-03T04:05:08.615Z,1030.7
2019-01-03T04:05:34.758Z,1030.68
2019-01-03T04:06:00.871Z,1030.71
2019-01-03T04:06:26.972Z,1030.72
2019-01-03T04:06:53.078Z,1030.71
2019-01-03T04:07:19.183Z,1030.7
2019-01-03T04:07:45.350Z,1030.67
2019-01-03T04:08:11.446Z,1030.65
2019-01-03T04:08:38.697Z,1030.65
2019-01-03T04:09:04.676Z,1030.72
2019-01-03T04:09:30.802Z,1030.69
2019-01-03T04:09:56.907Z,1030.71
2019-01-03T04:10:23.011Z,1030.67
2019-01-03T04:10:49.147Z,1030.68
2019-01-03T04:11:15.268Z,1030.66
2019-01-03T04:11:41.371Z,1030.66
2019-01-03T04:12:07.475Z,1030.68
2019-01-03T04:12:33.588Z,1030.67
2019-01-03T04:12:59.756Z,1030.65
2019-01-03T04:13:25.858Z,1030.67
2019-01-03T04:13:51.969Z,1030.66
2019-01-03T04:14:18.065Z,1030.68
2019-01-03T04:14:44.174Z,1030.66
2019-01-03T04:15:10.280Z,1030.67
2019-01-03T04:15:36.389Z,1030.68
2019-01-03T04:16:02.483Z,1030.64
2019-01-03T04:16:28.615Z,1030.65
2019-01-03T04:16:54.751Z,1030.63
2019-01-03T04:17:20.850Z,1030.64
2019-01-03T04:17:46.954Z,1030.64
2019-01-03T04:18:13.069Z,1030.68
2019-01-03T04:18:39.167Z,1030.67
2019-01-03T04:19:05.270Z,1030.66
2019-01-03T04:19:31.381Z,1030.65
2019-01-03T04:19:57.538Z,1030.66
2019-01-03T04:20:23.667Z,1030.63
2019-01-03T04:20:49.766Z,1030.61
2019-01-03T04:21:15.876Z,1030.68
2019-01-03T04:21:41.982Z,1030.66
2019-01-03T04:22:08.119Z,1030.67
2019-01-03T04:22:34.252Z,1030.66
2019-01-03T04:23:00.360Z,1030.66
2019-01-03T04:23:26.457Z,1030.65
2019-01-03T04:23:52.568Z,1030.67
2019-01-03T04:24:18.676Z,1030.69
2019-01-03T04:24:44.769Z,1030.65
2019-01-03T04:25:10.923Z,1030.65
2019-01-03T04:25:37.022Z,1030.65
2019-01-03T04:26:03.162Z,1030.64
2019-01-03T04:26:29.287Z,1030.61
2019-01-03T04:26:55.403Z,1030.61
2019-01-03T04:27:21.495Z,1030.6
2019-01-03T04:27:47.598Z,1030.65
2019-01-03T04:28:13.759Z,1030.61
2019-01-03T04:28:39.890Z,1030.65
2019-01-03T04:29:05.990Z,1030.61
2019-01-03T04:29:32.091Z,1030.67
2019-01-03T04:29:58.256Z,1030.7
2019-01-03T04:30:24.373Z,1030.66
2019-01-03T04:30:50.505Z,1030.65
2019-01-03T04:31:16.630Z,1030.66
2019-01-03T04:31:42.739Z,1030.68
2019-01-03T04:32:08.844Z,1030.63
2019-01-03T04:32:34.978Z,1030.61
2019-01-03T04:33:01.111Z,1030.62
2019-01-03T04:33:27.242Z,1030.59
2019-01-03T04:33:53.352Z,1030.6
2019-01-03T04:34:19.488Z,1030.63
2019-01-03T04:34:45.618Z,1030.61
2019-01-03T04:35:11.692Z,1030.61
2019-01-03T04:35:37.812Z,1030.62
2019-01-03T04:36:03.912Z,1030.61
2019-01-03T04:36:30.020Z,1030.59
2019-01-03T04:36:56.151Z,1030.65
2019-01-03T04:37:22.252Z,1030.62
2019-01-03T04:37:48.381Z,1030.63
2019-01-03T04:38:14.520Z,1030.62
2019-01-03T04:38:40.653Z,1030.63
2019-01-03T04:39:06.756Z,1030.63
2019-01-03T04:39:32.861Z,1030.64
2019-01-03T04:39:58.997Z,1030.67
2019-01-03T04:40:25.104Z,1030.7
2019-01-03T04:40:51.205Z,1030.72
2019-01-03T04:41:17.308Z,1030.71
2019-01-03T04:41:43.415Z,1030.71
2019-01-03T04:42:09.546Z,1030.74
2019-01-03T04:42:35.682Z,1030.73
2019-01-03T04:43:01.828Z,1030.74
2019-01-03T04:43:27.925Z,1030.74
2019-01-03T04:43:54.039Z,1030.73
2019-01-03T04:44:20.143Z,1030.74
2019-01-03T04:44:46.250Z,1030.74
2019-01-03T04:45:12.382Z,1030.71
2019-01-03T04:45:38.485Z,1030.67
2019-01-03T04:46:04.620Z,1030.71
2019-01-03T04:46:30.730Z,1030.66
2019-01-03T04:46:56.900Z,1030.66
2019-01-03T04:47:23.001Z,1030.66
2019-01-03T04:47:49.140Z,1030.71
2019-01-03T04:48:15.246Z,1030.64
2019-01-03T04:48:41.355Z,1030.68
2019-01-03T04:49:07.485Z,1030.66
2019-01-03T04:49:33.580Z,1030.66
2019-01-03T04:49:59.712Z,1030.67
2019-01-03T04:50:25.817Z,1030.7
2019-01-03T04:50:51.949Z,1030.66
2019-01-03T04:51:18.058Z,1030.7
2019-01-03T04:51:44.164Z,1030.7
2019-01-03T04:52:10.262Z,1030.68
2019-01-03T04:52:36.376Z,1030.69
2019-01-03T04:53:02.541Z,1030.68
2019-01-03T04:53:28.660Z,1030.68
2019-01-03T04:53:54.766Z,1030.66
2019-01-03T04:54:20.910Z,1030.7
2019-01-03T04:54:47.070Z,1030.66
2019-01-03T04:55:13.179Z,1030.67
2019-01-03T04:55:39.280Z,1030.69
2019-01-03T04:56:05.417Z,1030.66
2019-01-03T04:56:31.566Z,1030.67
2019-01-03T04:56:57.657Z,1030.65
2019-01-03T04:57:23.790Z,1030.66
2019-01-03T04:57:49.910Z,1030.67
2019-01-03T04:58:16.067Z,1030.63
2019-01-03T04:58:42.174Z,1030.62
2019-01-03T04:59:08.282Z,1030.59
2019-01-03T04:59:34.439Z,1030.59
2019-01-03T05:00:00.544Z,1030.6
2019-01-03T05:00:26.687Z,1030.6
2019-01-03T05:00:52.756Z,1030.56
2019-01-03T05:01:18.886Z,1030.57
2019-01-03T05:01:45.048Z,1030.58
2019-01-03T05:02:11.155Z,1030.6
2019-01-03T05:02:37.262Z,1030.62
2019-01-03T05:03:03.368Z,1030.57
2019-01-03T05:03:29.482Z,1030.56
2019-01-03T05:03:55.583Z,1030.56
2019-01-03T05:04:21.684Z,1030.53
2019-01-03T05:04:47.800Z,1030.59
2019-01-03T05:05:13.911Z,1030.54
2019-01-03T05:05:40.014Z,1030.55
2019-01-03T05:06:06.142Z,1030.54
2019-01-03T05:06:32.246Z,1030.56
2019-01-03T05:06:58.383Z,1030.53
2019-01-03T05:07:24.484Z,1030.53
2019-01-03T05:07:50.592Z,1030.52
2019-01-03T05:08:17.692Z,1030.51
2019-01-03T05:08:43.796Z,1030.55
2019-01-03T05:09:09.905Z,1030.56
2019-01-03T05:09:36.038Z,1030.56
2019-01-03T05:10:02.173Z,1030.53
2019-01-03T05:10:28.307Z,1030.52
2019-01-03T05:10:54.443Z,1030.54
2019-01-03T05:11:20.542Z,1030.55
2019-01-03T05:11:46.684Z,1030.58
2019-01-03T05:12:12.793Z,1030.58
2019-01-03T05:12:38.927Z,1030.56
2019-01-03T05:13:05.061Z,1030.59
2019-01-03T05:13:31.165Z,1030.59
2019-01-03T05:13:57.268Z,1030.6
2019-01-03T05:14:23.380Z,1030.62
2019-01-03T05:14:49.538Z,1030.62
2019-01-03T05:15:15.613Z,1030.58
2019-01-03T05:15:41.752Z,1030.61
2019-01-03T05:16:07.850Z,1030.61
2019-01-03T05:16:34.013Z,1030.6